createdAt,value
2018-01-10T00:01:49.843Z,8.89
2018-01-10T00:04:17.829Z,8.91
2018-01-10T00:06:45.578Z,8.93
2018-01-10T00:09:13.350Z,8.82
2018-01-10T00:11:40.901Z,8.87
2018-01-10T00:14:08.410Z,8.84
2018-01-10T00:16:36.223Z,8.85
2018-01-10T00:19:06.368Z,8.76
2018-01-10T00:21:33.884Z,8.70
2018-01-10T00:24:01.461Z,8.63
2018-01-10T00:26:28.969Z,8.61
2018-01-10T00:28:56.477Z,8.59
2018-01-10T00:31:24.042Z,8.58
2018-01-10T00:33:51.553Z,8.70
2018-01-10T00:36:19.061Z,8.68
2018-01-10T00:38:46.815Z,8.67
2018-01-10T00:41:14.322Z,8.72
2018-01-10T00:43:41.825Z,8.83
2018-01-10T00:46:09.389Z,8.97
2018-01-10T00:48:36.963Z,8.96
2018-01-10T00:51:04.509Z,9.13
2018-01-10T00:53:32.170Z,9.09
2018-01-10T00:56:00.463Z,9.22
2018-01-10T00:58:28.034Z,9.18
2018-01-10T01:00:55.706Z,9.06
2018-01-10T01:03:23.332Z,8.97
2018-01-10T01:05:51.401Z,9.08
2018-01-10T01:08:20.086Z,9.12
2018-01-10T01:10:47.750Z,9.14
2018-01-10T01:13:15.259Z,9.08
2018-01-10T01:15:42.969Z,9.02
2018-01-10T01:18:11.043Z,9.05
2018-01-10T01:20:39.110Z,9.01
2018-01-10T01:23:06.668Z,8.95
2018-01-10T01:25:34.173Z,8.87
2018-01-10T01:28:01.687Z,8.93
2018-01-10T01:30:29.449Z,8.91
2018-01-10T01:32:57.009Z,8.91
2018-01-10T01:35:24.517Z,8.75
2018-01-10T01:37:52.229Z,8.81
2018-01-10T01:40:19.789Z,8.72
2018-01-10T01:42:47.365Z,8.75
2018-01-10T01:45:14.925Z,8.78
2018-01-10T01:47:42.509Z,8.72
2018-01-10T01:50:10.024Z,8.77
2018-01-10T01:52:37.788Z,8.81
2018-01-10T01:55:05.349Z,8.75
2018-01-10T01:57:32.858Z,8.90
2018-01-10T02:00:00.470Z,8.92
2018-01-10T02:02:27.977Z,8.95
2018-01-10T02:04:55.486Z,8.91
2018-01-10T02:07:23.278Z,8.90
2018-01-10T02:09:50.789Z,8.91
2018-01-10T02:12:18.293Z,8.90
2018-01-10T02:14:46.110Z,8.84
2018-01-10T02:17:13.612Z,8.76
2018-01-10T02:19:41.148Z,8.88
2018-01-10T02:22:08.702Z,8.83
2018-01-10T02:24:36.218Z,8.76
2018-01-10T02:27:03.729Z,8.84
2018-01-10T02:29:31.289Z,8.76
2018-01-10T02:31:58.838Z,8.65
2018-01-10T02:34:26.415Z,8.69
2018-01-10T02:36:54.094Z,8.68
2018-01-10T02:39:21.606Z,8.71
2018-01-10T02:41:49.121Z,8.79
2018-01-10T02:44:16.734Z,8.77
2018-01-10T02:46:44.294Z,8.75
2018-01-10T02:49:11.798Z,8.72
2018-01-10T02:51:39.514Z,8.66
2018-01-10T02:54:07.025Z,8.60
2018-01-10T02:56:34.550Z,8.60
2018-01-10T02:59:02.396Z,8.29
2018-01-10T03:01:29.914Z,8.52
2018-01-10T03:03:57.425Z,8.52
2018-01-10T03:06:25.175Z,8.46
2018-01-10T03:08:52.737Z,8.36
2018-01-10T03:11:20.345Z,8.29
2018-01-10T03:13:48.070Z,8.23
2018-01-10T03:16:15.583Z,8.17
2018-01-10T03:18:43.142Z,8.13
2018-01-10T03:21:10.764Z,7.99
2018-01-10T03:23:38.310Z,8.10
2018-01-10T03:26:05.854Z,8.02
2018-01-10T03:28:33.428Z,7.98
2018-01-10T03:31:00.973Z,8.08
2018-01-10T03:33:28.532Z,8.00
2018-01-10T03:35:56.295Z,8.01
2018-01-10T03:38:23.805Z,8.07
2018-01-10T03:40:51.397Z,7.98
2018-01-10T03:43:19.154Z,7.99
2018-01-10T03:45:46.661Z,8.04
2018-01-10T03:48:14.209Z,7.99
2018-01-10T03:50:41.762Z,8.17
2018-01-10T03:53:09.269Z,8.18
2018-01-10T03:55:36.790Z,8.06
2018-01-10T03:58:04.346Z,8.14
2018-01-10T04:00:31.886Z,8.16
2018-01-10T04:02:59.393Z,8.19
2018-01-10T04:05:27.313Z,8.09
2018-01-10T04:07:54.872Z,8.13
2018-01-10T04:10:22.425Z,8.10
2018-01-10T04:12:49.994Z,8.09
2018-01-10T04:15:17.562Z,7.93
2018-01-10T04:17:45.107Z,8.14
2018-01-10T04:20:12.793Z,8.12
2018-01-10T04:22:40.332Z,8.19
2018-01-10T04:25:07.911Z,8.10
2018-01-10T04:27:35.521Z,8.05
2018-01-10T04:30:03.025Z,7.88
2018-01-10T04:32:30.565Z,7.95
2018-01-10T04:34:58.102Z,7.71
2018-01-10T04:37:25.702Z,7.90
2018-01-10T04:39:53.242Z,7.86
2018-01-10T04:42:20.798Z,7.98
2018-01-10T04:44:48.311Z,7.80
2018-01-10T04:47:15.868Z,7.94
2018-01-10T04:49:43.424Z,7.75
2018-01-10T04:52:10.935Z,7.86
2018-01-10T04:54:38.500Z,7.98
2018-01-10T04:57:06.258Z,7.61
2018-01-10T04:59:34.040Z,7.83
2018-01-10T05:02:01.550Z,7.67
2018-01-10T05:04:29.346Z,7.47
2018-01-10T05:06:56.905Z,7.85
2018-01-10T05:09:24.417Z,7.92
2018-01-10T05:11:52.097Z,7.66
2018-01-10T05:14:19.609Z,7.89
2018-01-10T05:16:47.121Z,8.00
2018-01-10T05:19:14.699Z,8.04
2018-01-10T05:21:42.214Z,8.19
2018-01-10T05:24:09.733Z,8.38
2018-01-10T05:26:37.452Z,8.44
2018-01-10T05:29:04.963Z,8.47
2018-01-10T05:31:32.486Z,8.49
2018-01-10T05:34:00.772Z,8.47
2018-01-10T05:36:28.346Z,8.51
2018-01-10T05:38:55.963Z,8.08
2018-01-10T05:41:23.756Z,8.31
2018-01-10T05:43:51.316Z,8.18
2018-01-10T05:46:18.892Z,8.31
2018-01-10T05:48:46.739Z,8.29
2018-01-10T05:51:14.300Z,8.10
2018-01-10T05:53:41.878Z,8.27
2018-01-10T05:56:09.622Z,8.29
2018-01-10T05:58:37.182Z,8.39
2018-01-10T06:01:04.686Z,8.26
2018-01-10T06:03:32.401Z,8.21
2018-01-10T06:05:59.961Z,8.17
2018-01-10T06:08:27.542Z,8.21
2018-01-10T06:10:55.283Z,7.78
2018-01-10T06:13:22.845Z,7.86
2018-01-10T06:15:50.395Z,7.88
2018-01-10T06:18:17.958Z,8.19
2018-01-10T06:20:45.521Z,8.28
2018-01-10T06:23:13.027Z,8.13
2018-01-10T06:25:40.746Z,8.19
2018-01-10T06:28:08.300Z,8.07
2018-01-10T06:30:35.861Z,8.01
2018-01-10T06:33:03.408Z,8.09
2018-01-10T06:35:30.978Z,8.00
2018-01-10T06:37:58.538Z,8.11
2018-01-10T06:40:26.299Z,7.98
2018-01-10T06:42:53.809Z,7.73
2018-01-10T06:45:21.315Z,7.81
2018-01-10T06:47:49.061Z,8.02
2018-01-10T06:50:16.570Z,7.96
2018-01-10T06:52:44.082Z,8.08
2018-01-10T06:55:11.963Z,8.00
2018-01-10T06:57:39.470Z,7.66
2018-01-10T07:00:06.998Z,7.79
2018-01-10T07:02:34.741Z,7.85
2018-01-10T07:05:02.254Z,7.67
2018-01-10T07:07:29.860Z,7.65
2018-01-10T07:09:57.419Z,8.01
2018-01-10T07:12:24.980Z,7.82
2018-01-10T07:14:52.538Z,8.10
2018-01-10T07:17:24.397Z,8.13
2018-01-10T07:19:52.948Z,8.42
2018-01-10T07:22:20.541Z,8.34
2018-01-10T07:24:48.201Z,8.18
2018-01-10T07:27:16.682Z,8.21
2018-01-10T07:29:45.162Z,8.33
2018-01-10T07:32:12.926Z,8.36
2018-01-10T07:34:40.526Z,8.56
2018-01-10T07:37:08.054Z,8.57
2018-01-10T07:39:35.812Z,8.71
2018-01-10T07:42:04.189Z,8.70
2018-01-10T07:44:34.103Z,8.59
2018-01-10T07:47:02.172Z,8.72
2018-01-10T07:49:29.843Z,8.72
2018-01-10T07:51:57.364Z,8.68
2018-01-10T07:54:25.259Z,8.59
2018-01-10T07:56:53.025Z,8.60
2018-01-10T07:59:21.393Z,8.68
2018-01-10T08:01:49.145Z,8.72
2018-01-10T08:04:16.657Z,8.61
2018-01-10T08:06:44.178Z,8.67
2018-01-10T08:09:11.949Z,8.62
2018-01-10T08:11:39.505Z,8.71
2018-01-10T08:14:07.083Z,8.70
2018-01-10T08:16:34.637Z,8.44
2018-01-10T08:19:02.150Z,8.71
2018-01-10T08:21:29.657Z,8.82
2018-01-10T08:23:57.607Z,8.89
2018-01-10T08:26:25.126Z,8.62
2018-01-10T08:28:52.643Z,8.53
2018-01-10T08:31:20.437Z,9.01
2018-01-10T08:33:48.049Z,9.15
2018-01-10T08:36:15.563Z,8.93
2018-01-10T08:38:43.251Z,9.13
2018-01-10T08:41:10.762Z,9.31
2018-01-10T08:43:38.278Z,9.25
2018-01-10T08:46:06.134Z,9.66
2018-01-10T08:48:33.649Z,9.60
2018-01-10T08:51:01.167Z,9.80
2018-01-10T08:53:28.931Z,9.88
2018-01-10T08:55:56.487Z,10.13
2018-01-10T08:58:24.098Z,9.85
2018-01-10T09:00:52.018Z,9.64
2018-01-10T09:03:19.578Z,10.16
2018-01-10T09:05:47.301Z,10.23
2018-01-10T09:08:14.981Z,10.23
2018-01-10T09:10:42.498Z,10.41
2018-01-10T09:13:10.019Z,10.50
2018-01-10T09:15:37.866Z,10.34
2018-01-10T09:18:05.373Z,10.84
2018-01-10T09:20:32.886Z,10.96
2018-01-10T09:23:00.462Z,11.03
2018-01-10T09:25:28.019Z,11.29
2018-01-10T09:27:55.577Z,11.02
2018-01-10T09:30:23.342Z,11.32
2018-01-10T09:32:50.858Z,11.50
2018-01-10T09:35:18.376Z,14.72
2018-01-10T09:37:45.942Z,17.78
2018-01-10T09:40:13.476Z,20.12
2018-01-10T09:42:40.986Z,21.68
2018-01-10T09:45:08.798Z,21.87
2018-01-10T09:47:36.359Z,21.77
2018-01-10T09:50:03.918Z,22.68
2018-01-10T09:52:31.685Z,22.32
2018-01-10T09:54:59.214Z,21.92
2018-01-10T09:57:26.799Z,23.91
2018-01-10T09:59:54.566Z,24.24
2018-01-10T10:02:22.123Z,23.79
2018-01-10T10:04:49.682Z,24.54
2018-01-10T10:07:17.445Z,23.88
2018-01-10T10:09:45.016Z,23.41
2018-01-10T10:12:12.563Z,24.73
2018-01-10T10:14:40.429Z,24.90
2018-01-10T10:17:07.994Z,25.01
2018-01-10T10:19:35.501Z,24.14
2018-01-10T10:22:03.386Z,23.30
2018-01-10T10:24:30.901Z,22.70
2018-01-10T10:26:58.409Z,24.61
2018-01-10T10:29:26.175Z,25.80
2018-01-10T10:31:53.691Z,25.47
2018-01-10T10:34:21.209Z,26.84
2018-01-10T10:36:48.854Z,27.76
2018-01-10T10:39:16.365Z,27.04
2018-01-10T10:41:43.874Z,27.14
2018-01-10T10:44:11.446Z,27.10
2018-01-10T10:46:39.005Z,26.71
2018-01-10T10:49:06.518Z,26.34
2018-01-10T10:51:34.301Z,28.03
2018-01-10T10:54:01.817Z,28.26
2018-01-10T10:56:29.321Z,28.61
2018-01-10T10:58:56.903Z,29.43
2018-01-10T11:01:24.406Z,28.51
2018-01-10T11:03:51.941Z,27.03
2018-01-10T11:06:19.482Z,26.56
2018-01-10T11:08:47.034Z,26.57
2018-01-10T11:11:14.621Z,27.60
2018-01-10T11:13:42.359Z,27.25
2018-01-10T11:16:09.881Z,25.36
2018-01-10T11:18:38.225Z,23.26
2018-01-10T11:21:05.770Z,22.17
2018-01-10T11:23:33.312Z,20.57
2018-01-10T11:26:00.813Z,19.23
2018-01-10T11:28:28.538Z,19.44
2018-01-10T11:30:56.094Z,19.20
2018-01-10T11:33:23.602Z,20.14
2018-01-10T11:35:51.212Z,19.84
2018-01-10T11:38:18.717Z,19.59
2018-01-10T11:40:46.230Z,19.98
2018-01-10T11:43:14.092Z,19.90
2018-01-10T11:45:41.611Z,19.44
2018-01-10T11:48:09.135Z,21.50
2018-01-10T11:50:36.883Z,21.46
2018-01-10T11:53:04.431Z,19.84
2018-01-10T11:55:31.938Z,18.89
2018-01-10T11:57:59.478Z,19.02
2018-01-10T12:00:27.006Z,19.14
2018-01-10T12:02:54.517Z,20.46
2018-01-10T12:05:22.332Z,20.50
2018-01-10T12:07:49.889Z,19.62
2018-01-10T12:10:17.395Z,19.19
2018-01-10T12:12:45.011Z,17.84
2018-01-10T12:15:12.567Z,17.89
2018-01-10T12:17:40.074Z,17.08
2018-01-10T12:20:07.882Z,17.12
2018-01-10T12:22:35.398Z,16.86
2018-01-10T12:25:02.913Z,17.26
2018-01-10T12:27:30.786Z,17.38
2018-01-10T12:29:58.298Z,17.68
2018-01-10T12:32:25.815Z,17.65
2018-01-10T12:34:53.755Z,17.17
2018-01-10T12:37:21.317Z,16.22
2018-01-10T12:39:48.976Z,15.29
2018-01-10T12:42:16.534Z,15.30
2018-01-10T12:44:44.107Z,15.38
2018-01-10T12:47:11.626Z,14.96
2018-01-10T12:49:39.826Z,14.90
2018-01-10T12:52:07.386Z,14.90
2018-01-10T12:54:34.963Z,14.85
2018-01-10T12:57:02.525Z,15.13
2018-01-10T12:59:30.067Z,15.01
2018-01-10T13:01:57.622Z,14.82
2018-01-10T13:04:25.795Z,14.50
2018-01-10T13:06:53.301Z,13.99
2018-01-10T13:09:20.813Z,14.13
2018-01-10T13:11:48.516Z,14.65
2018-01-10T13:14:16.225Z,14.89
2018-01-10T13:16:43.904Z,14.85
2018-01-10T13:19:11.692Z,14.93
2018-01-10T13:21:39.227Z,14.87
2018-01-10T13:24:06.735Z,15.02
2018-01-10T13:26:34.349Z,14.94
2018-01-10T13:29:01.865Z,14.83
2018-01-10T13:31:29.381Z,14.43
2018-01-10T13:33:57.200Z,14.20
2018-01-10T13:36:24.710Z,13.97
2018-01-10T13:38:52.223Z,14.01
2018-01-10T13:41:19.899Z,13.79
2018-01-10T13:43:47.471Z,13.67
2018-01-10T13:46:15.024Z,13.70
2018-01-10T13:48:42.784Z,13.45
2018-01-10T13:51:10.311Z,13.44
2018-01-10T13:53:37.836Z,13.28
2018-01-10T13:56:05.544Z,13.35
2018-01-10T13:58:33.058Z,13.41
2018-01-10T14:01:00.591Z,13.26
2018-01-10T14:03:28.323Z,13.54
2018-01-10T14:05:55.846Z,13.35
2018-01-10T14:08:23.430Z,13.27
2018-01-10T14:10:51.369Z,13.17
2018-01-10T14:13:18.915Z,13.19
2018-01-10T14:15:46.444Z,13.35
2018-01-10T14:18:14.309Z,13.23
2018-01-10T14:20:41.867Z,13.24
2018-01-10T14:23:09.700Z,12.85
2018-01-10T14:25:37.480Z,12.88
2018-01-10T14:28:05.058Z,12.90
2018-01-10T14:30:32.718Z,12.68
2018-01-10T14:33:00.644Z,12.53
2018-01-10T14:35:28.193Z,12.56
2018-01-10T14:37:55.718Z,12.52
2018-01-10T14:40:23.671Z,12.62
2018-01-10T14:42:51.257Z,12.34
2018-01-10T14:45:18.795Z,12.35
2018-01-10T14:47:46.451Z,12.44
2018-01-10T14:50:14.110Z,12.44
2018-01-10T14:52:41.774Z,12.45
2018-01-10T14:55:09.539Z,12.47
2018-01-10T14:57:37.114Z,12.50
2018-01-10T15:00:04.657Z,12.46
2018-01-10T15:02:33.169Z,12.51
2018-01-10T15:05:00.691Z,12.59
2018-01-10T15:07:28.274Z,12.63
2018-01-10T15:09:56.201Z,12.70
2018-01-10T15:12:23.751Z,12.77
2018-01-10T15:14:51.326Z,12.73
2018-01-10T15:17:19.125Z,12.52
2018-01-10T15:19:46.649Z,12.73
2018-01-10T15:22:14.166Z,12.76
2018-01-10T15:24:42.210Z,12.70
2018-01-10T15:27:09.777Z,12.64
2018-01-10T15:29:37.313Z,12.61
2018-01-10T15:32:04.898Z,12.53
2018-01-10T15:34:32.423Z,12.34
2018-01-10T15:36:59.990Z,12.22
2018-01-10T15:39:27.570Z,12.23
2018-01-10T15:41:55.285Z,12.36
2018-01-10T15:44:23.066Z,12.44
2018-01-10T15:46:50.641Z,12.41
2018-01-10T15:49:18.194Z,12.37
2018-01-10T15:51:45.762Z,12.46
2018-01-10T15:54:13.559Z,12.50
2018-01-10T15:56:41.280Z,12.42
2018-01-10T15:59:08.933Z,12.41
2018-01-10T16:01:36.875Z,12.31
2018-01-10T16:04:04.421Z,12.33
2018-01-10T16:06:31.945Z,12.35
2018-01-10T16:09:00.025Z,12.30
2018-01-10T16:11:27.607Z,12.11
2018-01-10T16:13:55.137Z,12.03
2018-01-10T16:16:23.596Z,12.20
2018-01-10T16:18:51.156Z,12.26
2018-01-10T16:21:19.202Z,12.21
2018-01-10T16:23:47.112Z,12.22
2018-01-10T16:26:14.896Z,12.24
2018-01-10T16:28:43.364Z,12.17
2018-01-10T16:31:11.211Z,12.06
2018-01-10T16:33:38.758Z,12.09
2018-01-10T16:36:06.266Z,11.98
2018-01-10T16:38:33.882Z,11.97
2018-01-10T16:41:01.441Z,11.96
2018-01-10T16:43:29.046Z,11.87
2018-01-10T16:45:56.865Z,11.94
2018-01-10T16:48:24.384Z,11.97
2018-01-10T16:50:52.210Z,11.91
2018-01-10T16:53:20.056Z,11.94
2018-01-10T16:55:47.718Z,11.83
2018-01-10T16:58:16.186Z,11.83
2018-01-10T17:00:44.068Z,11.68
2018-01-10T17:03:11.650Z,11.78
2018-01-10T17:05:39.181Z,11.83
2018-01-10T17:08:06.749Z,11.79
2018-01-10T17:10:35.333Z,11.81
2018-01-10T17:13:02.858Z,11.79
2018-01-10T17:15:30.536Z,11.85
2018-01-10T17:17:58.207Z,11.82
2018-01-10T17:20:25.792Z,11.77
2018-01-10T17:22:54.144Z,11.78
2018-01-10T17:25:21.709Z,11.82
2018-01-10T17:27:49.395Z,11.84
2018-01-10T17:30:17.436Z,11.61
2018-01-10T17:32:44.995Z,11.62
2018-01-10T17:35:12.657Z,11.72
2018-01-10T17:37:40.933Z,11.80
2018-01-10T17:40:09.431Z,11.58
2018-01-10T17:42:37.032Z,11.75
2018-01-10T17:45:04.823Z,11.30
2018-01-10T17:47:32.500Z,11.62
2018-01-10T17:50:00.162Z,11.67
2018-01-10T17:52:27.924Z,11.61
2018-01-10T17:54:55.486Z,11.44
2018-01-10T17:57:23.156Z,11.39
2018-01-10T17:59:50.901Z,11.33
2018-01-10T18:02:18.749Z,11.42
2018-01-10T18:04:46.561Z,11.42
2018-01-10T18:07:14.816Z,10.97
2018-01-10T18:09:42.595Z,10.63
2018-01-10T18:12:10.183Z,11.21
2018-01-10T18:14:38.408Z,11.10
2018-01-10T18:17:06.189Z,11.16
2018-01-10T18:19:33.946Z,10.95
2018-01-10T18:22:01.677Z,11.33
2018-01-10T18:24:31.213Z,11.35
2018-01-10T18:26:59.035Z,11.26
2018-01-10T18:29:27.251Z,11.46
2018-01-10T18:31:55.528Z,11.17
2018-01-10T18:34:23.189Z,11.29
2018-01-10T18:36:51.158Z,11.05
2018-01-10T18:39:18.921Z,11.18
2018-01-10T18:41:47.402Z,11.06
2018-01-10T18:44:15.837Z,11.08
2018-01-10T18:46:45.249Z,11.15
2018-01-10T18:49:16.010Z,11.09
2018-01-10T18:51:43.766Z,11.32
2018-01-10T18:54:12.269Z,11.20
2018-01-10T18:56:40.190Z,11.19
2018-01-10T18:59:08.200Z,10.89
2018-01-10T19:01:36.079Z,11.20
2018-01-10T19:04:04.344Z,11.30
2018-01-10T19:06:32.520Z,11.51
2018-01-10T19:09:00.477Z,11.82
2018-01-10T19:11:28.150Z,11.69
2018-01-10T19:13:56.320Z,11.67
2018-01-10T19:16:23.994Z,11.49
2018-01-10T19:18:51.953Z,11.83
2018-01-10T19:21:20.124Z,11.67
2018-01-10T19:23:51.593Z,11.44
2018-01-10T19:26:19.647Z,11.30
2018-01-10T19:28:47.535Z,11.23
2018-01-10T19:31:16.421Z,11.48
2018-01-10T19:33:44.575Z,11.79
2018-01-10T19:36:12.354Z,11.79
2018-01-10T19:38:40.103Z,11.75
2018-01-10T19:41:08.077Z,11.21
2018-01-10T19:43:35.842Z,11.49
2018-01-10T19:46:03.612Z,11.66
2018-01-10T19:48:31.884Z,11.81
2018-01-10T19:50:59.744Z,12.03
2018-01-10T19:53:27.631Z,12.01
2018-01-10T19:55:55.579Z,11.98
2018-01-10T19:58:24.161Z,11.90
2018-01-10T20:00:52.030Z,11.83
2018-01-10T20:03:20.368Z,11.93
2018-01-10T20:05:48.174Z,11.85
2018-01-10T20:08:15.816Z,11.86
2018-01-10T20:10:43.551Z,11.74
2018-01-10T20:13:11.383Z,11.78
2018-01-10T20:15:39.133Z,11.43
2018-01-10T20:18:07.209Z,11.44
2018-01-10T20:20:35.471Z,11.59
2018-01-10T20:23:03.336Z,11.55
2018-01-10T20:25:31.492Z,11.37
2018-01-10T20:27:59.286Z,11.46
2018-01-10T20:30:27.035Z,11.36
2018-01-10T20:32:55.520Z,11.36
2018-01-10T20:35:23.284Z,11.46
2018-01-10T20:37:51.457Z,11.44
2018-01-10T20:40:19.937Z,11.32
2018-01-10T20:42:47.917Z,11.29
2018-01-10T20:45:16.815Z,11.51
2018-01-10T20:47:44.985Z,11.51
2018-01-10T20:50:12.751Z,11.62
2018-01-10T20:52:40.474Z,11.45
2018-01-10T20:55:08.465Z,11.55
2018-01-10T20:57:36.249Z,11.54
2018-01-10T21:00:04.216Z,11.48
2018-01-10T21:02:32.270Z,11.50
2018-01-10T21:05:00.512Z,11.43
2018-01-10T21:07:28.616Z,11.36
2018-01-10T21:09:57.302Z,11.23
2018-01-10T21:12:25.086Z,11.29
2018-01-10T21:14:53.053Z,11.26
2018-01-10T21:17:20.730Z,11.25
2018-01-10T21:19:48.460Z,11.06
2018-01-10T21:22:16.302Z,11.12
2018-01-10T21:24:44.125Z,10.91
2018-01-10T21:27:11.753Z,10.90
2018-01-10T21:29:39.445Z,10.86
2018-01-10T21:32:07.121Z,10.76
2018-01-10T21:34:35.138Z,10.58
2018-01-10T21:37:02.829Z,10.61
2018-01-10T21:39:30.572Z,10.84
2018-01-10T21:41:58.285Z,10.85
2018-01-10T21:44:26.510Z,10.83
2018-01-10T21:46:54.377Z,10.95
2018-01-10T21:49:22.960Z,10.93
2018-01-10T21:51:50.826Z,10.92
2018-01-10T21:54:19.204Z,10.93
2018-01-10T21:56:50.403Z,10.83
2018-01-10T21:59:18.008Z,10.78
2018-01-10T22:01:45.882Z,10.88
2018-01-10T22:04:14.151Z,10.93
2018-01-10T22:06:41.819Z,10.92
2018-01-10T22:09:09.590Z,10.87
2018-01-10T22:11:37.750Z,10.88
2018-01-10T22:14:06.435Z,10.95
2018-01-10T22:16:34.815Z,10.97
2018-01-10T22:19:02.888Z,10.90
2018-01-10T22:21:31.291Z,10.88
2018-01-10T22:23:59.028Z,10.80
2018-01-10T22:26:26.689Z,10.66
2018-01-10T22:28:54.248Z,10.48
2018-01-10T22:31:22.013Z,10.33
2018-01-10T22:33:50.220Z,10.17
2018-01-10T22:36:17.848Z,10.07
2018-01-10T22:38:45.433Z,10.10
2018-01-10T22:41:13.160Z,10.13
2018-01-10T22:43:40.697Z,10.12
2018-01-10T22:46:08.287Z,10.09
2018-01-10T22:48:42.243Z,9.98
2018-01-10T22:51:09.774Z,9.94
2018-01-10T22:53:37.315Z,9.87
2018-01-10T22:56:05.288Z,9.75
2018-01-10T22:58:32.852Z,9.70
2018-01-10T23:01:00.709Z,9.57
2018-01-10T23:03:28.246Z,9.55
2018-01-10T23:05:55.770Z,9.44
2018-01-10T23:08:23.723Z,9.38
2018-01-10T23:10:51.281Z,9.31
2018-01-10T23:13:18.916Z,9.24
2018-01-10T23:15:47.309Z,9.19
2018-01-10T23:18:14.857Z,9.16
2018-01-10T23:20:42.901Z,9.08
2018-01-10T23:23:10.811Z,8.96
2018-01-10T23:25:38.349Z,8.80
2018-01-10T23:28:06.014Z,8.71
2018-01-10T23:30:36.444Z,8.72
2018-01-10T23:33:03.962Z,8.72
2018-01-10T23:35:31.542Z,8.68
2018-01-10T23:37:59.319Z,8.61
2018-01-10T23:40:27.290Z,8.54
2018-01-10T23:42:54.813Z,8.47
2018-01-10T23:45:22.673Z,8.41
2018-01-10T23:47:50.236Z,8.38
2018-01-10T23:50:17.729Z,8.33
2018-01-10T23:52:45.414Z,8.28
2018-01-10T23:55:12.950Z,8.18
2018-01-10T23:57:41.124Z,8.11
